createdAt,value
2023-06-24T00:04:22.856Z,3.13
2023-06-24T00:09:28.560Z,2.90
2023-06-24T00:14:33.917Z,2.80
2023-06-24T00:19:38.468Z,2.80
2023-06-24T00:24:44.126Z,2.75
2023-06-24T00:29:49.738Z,2.53
2023-06-24T00:34:54.377Z,2.45
2023-06-24T00:39:58.562Z,2.28
2023-06-24T00:45:05.718Z,2.47
2023-06-24T00:50:13.239Z,2.63
2023-06-24T00:55:21.508Z,2.63
2023-06-24T01:00:27.670Z,2.45
2023-06-24T01:05:36.743Z,2.42
2023-06-24T01:10:41.009Z,2.33
2023-06-24T01:15:46.983Z,2.30
2023-06-24T01:20:58.516Z,2.43
2023-06-24T01:26:31.169Z,2.50
2023-06-24T01:31:47.338Z,2.45
2023-06-24T01:37:00.873Z,1.98
2023-06-24T01:42:10.726Z,2.63
2023-06-24T01:47:18.770Z,2.60
2023-06-24T01:52:25.218Z,2.13
2023-06-24T01:57:31.187Z,2.33
2023-06-24T02:02:38.150Z,3.20
2023-06-24T02:07:44.350Z,2.60
2023-06-24T02:12:53.166Z,3.28
2023-06-24T02:17:59.688Z,3.08
2023-06-24T02:23:10.610Z,3.85
2023-06-24T02:28:16.851Z,3.88
2023-06-24T02:33:22.583Z,3.70
2023-06-24T02:38:28.825Z,4.03
2023-06-24T02:43:33.124Z,4.72
2023-06-24T02:48:41.462Z,4.57
2023-06-24T02:53:47.871Z,4.70
2023-06-24T02:58:55.299Z,4.57
2023-06-24T03:04:05.437Z,4.97
2023-06-24T03:09:10.421Z,4.38
2023-06-24T03:14:15.237Z,4.50
2023-06-24T03:19:22.814Z,4.88
2023-06-24T03:24:27.829Z,5.13
2023-06-24T03:29:31.972Z,4.90
2023-06-24T03:34:45.183Z,4.75
2023-06-24T03:39:49.686Z,5.30
2023-06-24T03:44:54.012Z,5.32
2023-06-24T03:49:59.536Z,5.18
2023-06-24T03:55:06.117Z,5.28
2023-06-24T04:00:16.677Z,5.00
2023-06-24T04:05:25.894Z,5.72
2023-06-24T04:10:29.975Z,5.72
2023-06-24T04:15:34.360Z,6.18
2023-06-24T04:20:40.129Z,5.85
2023-06-24T04:25:44.439Z,6.78
2023-06-24T04:30:48.549Z,6.28
2023-06-24T04:35:57.628Z,7.05
2023-06-24T04:41:02.422Z,7.60
2023-06-24T04:46:06.454Z,8.40
2023-06-24T04:51:12.057Z,7.40
2023-06-24T04:56:16.138Z,7.47
2023-06-24T05:01:20.564Z,7.90
2023-06-24T05:06:26.098Z,7.55
2023-06-24T05:11:30.155Z,7.70
2023-06-24T05:16:34.239Z,6.63
2023-06-24T05:21:39.721Z,7.05
2023-06-24T05:26:43.758Z,6.72
2023-06-24T05:31:47.993Z,7.35
2023-06-24T05:36:53.460Z,6.93
2023-06-24T05:41:57.581Z,7.35
2023-06-24T05:47:01.600Z,5.85
2023-06-24T05:52:08.793Z,6.65
2023-06-24T05:57:13.499Z,7.13
2023-06-24T06:02:18.054Z,6.35
2023-06-24T06:07:23.520Z,7.00
2023-06-24T06:12:27.861Z,7.18
2023-06-24T06:17:31.897Z,7.57
2023-06-24T06:22:38.898Z,7.05
2023-06-24T06:27:43.087Z,5.90
2023-06-24T06:32:47.166Z,6.35
2023-06-24T06:37:56.671Z,5.72
2023-06-24T06:43:01.115Z,5.45
2023-06-24T06:48:08.351Z,7.32
2023-06-24T06:53:14.097Z,6.30
2023-06-24T06:58:18.302Z,6.47
2023-06-24T07:03:22.743Z,5.97
2023-06-24T07:08:28.215Z,6.00
2023-06-24T07:13:32.360Z,6.15
2023-06-24T07:18:36.437Z,5.00
2023-06-24T07:23:42.886Z,6.30
2023-06-24T07:28:53.858Z,4.85
2023-06-24T07:34:08.166Z,4.80
2023-06-24T07:39:13.638Z,5.15
2023-06-24T07:44:17.674Z,4.40
2023-06-24T07:49:21.728Z,4.10
2023-06-24T07:54:27.200Z,4.85
2023-06-24T07:59:31.173Z,5.20
2023-06-24T08:04:35.407Z,3.95
2023-06-24T08:09:40.937Z,4.15
2023-06-24T08:14:44.979Z,4.75
2023-06-24T08:19:49.041Z,4.90
2023-06-24T08:24:54.509Z,4.78
2023-06-24T08:29:58.629Z,5.05
2023-06-24T08:35:02.697Z,4.43
2023-06-24T08:40:09.960Z,4.07
2023-06-24T08:45:13.995Z,3.95
2023-06-24T08:50:20.775Z,5.00
2023-06-24T08:55:28.872Z,4.38
2023-06-24T09:00:33.149Z,5.20
2023-06-24T09:05:37.355Z,3.88
2023-06-24T09:10:43.060Z,4.20
2023-06-24T09:15:47.122Z,4.05
2023-06-24T09:20:51.179Z,4.03
2023-06-24T09:26:00.196Z,3.67
2023-06-24T09:31:18.932Z,2.92
2023-06-24T09:36:24.348Z,3.75
2023-06-24T09:41:30.546Z,3.78
2023-06-24T09:46:36.207Z,2.80
2023-06-24T09:51:42.369Z,3.70
2023-06-24T09:56:51.311Z,3.35
2023-06-24T10:01:56.310Z,2.22
2023-06-24T10:07:01.616Z,3.17
2023-06-24T10:12:08.589Z,3.42
2023-06-24T10:17:14.832Z,2.20
2023-06-24T10:22:19.068Z,2.15
2023-06-24T10:27:27.982Z,3.30
2023-06-24T10:32:43.949Z,3.40
2023-06-24T10:37:58.026Z,3.20
2023-06-24T10:43:03.569Z,2.97
2023-06-24T10:48:07.998Z,2.72
2023-06-24T10:53:12.257Z,3.17
2023-06-24T10:58:17.928Z,2.72
2023-06-24T11:03:23.112Z,2.00
2023-06-24T11:08:27.160Z,2.30
2023-06-24T11:13:35.704Z,2.00
2023-06-24T11:18:40.701Z,2.17
2023-06-24T11:23:44.748Z,2.38
2023-06-24T11:28:51.710Z,1.60
2023-06-24T11:33:55.882Z,2.30
2023-06-24T11:39:00.221Z,2.60
2023-06-24T11:44:07.663Z,2.38
2023-06-24T11:49:12.023Z,2.20
2023-06-24T11:54:20.670Z,1.73
2023-06-24T11:59:29.252Z,2.25
2023-06-24T12:04:35.007Z,2.33
2023-06-24T12:09:40.876Z,1.85
2023-06-24T12:14:46.360Z,2.20
2023-06-24T12:19:50.404Z,2.10
2023-06-24T12:24:54.383Z,1.90
2023-06-24T12:29:59.867Z,2.15
2023-06-24T12:35:04.497Z,2.10
2023-06-24T12:40:10.033Z,2.25
2023-06-24T12:45:15.796Z,2.20
2023-06-24T12:50:19.890Z,2.17
2023-06-24T12:55:24.051Z,1.70
2023-06-24T13:00:29.551Z,2.35
2023-06-24T13:05:33.652Z,2.10
2023-06-24T13:10:37.878Z,2.22
2023-06-24T13:15:44.527Z,2.33
2023-06-24T13:20:48.625Z,2.00
2023-06-24T13:25:52.756Z,1.98
2023-06-24T13:30:58.237Z,1.92
2023-06-24T13:36:03.744Z,1.90
2023-06-24T13:41:07.824Z,2.27
2023-06-24T13:46:13.544Z,1.80
2023-06-24T13:51:17.934Z,1.98
2023-06-24T13:56:22.912Z,1.45
2023-06-24T14:01:29.675Z,1.67
2023-06-24T14:06:33.864Z,1.80
2023-06-24T14:11:38.141Z,1.65
2023-06-24T14:16:43.575Z,1.77
2023-06-24T14:21:47.880Z,1.60
2023-06-24T14:26:52.174Z,1.52
2023-06-24T14:31:57.745Z,1.67
2023-06-24T14:37:01.844Z,1.97
2023-06-24T14:42:09.189Z,1.73
2023-06-24T14:47:14.972Z,1.85
2023-06-24T14:52:19.126Z,1.90
2023-06-24T14:57:24.550Z,2.33
2023-06-24T15:02:30.084Z,1.60
2023-06-24T15:07:34.284Z,1.45
2023-06-24T15:12:41.698Z,1.60
2023-06-24T15:17:47.178Z,1.63
2023-06-24T15:22:51.262Z,2.10
2023-06-24T15:27:55.391Z,1.73
2023-06-24T15:33:00.890Z,1.60
2023-06-24T15:38:04.959Z,1.47
2023-06-24T15:43:10.575Z,1.60
2023-06-24T15:48:16.456Z,1.60
2023-06-24T15:53:20.516Z,1.50
2023-06-24T15:58:24.657Z,1.92
2023-06-24T16:03:30.136Z,2.10
2023-06-24T16:08:34.268Z,2.20
2023-06-24T16:13:38.442Z,1.80
2023-06-24T16:18:43.866Z,1.83
2023-06-24T16:23:48.635Z,1.33
2023-06-24T16:28:52.759Z,1.83
2023-06-24T16:33:58.943Z,1.35
2023-06-24T16:39:03.005Z,1.58
2023-06-24T16:44:07.364Z,1.90
2023-06-24T16:49:12.829Z,2.50
2023-06-24T16:54:17.909Z,2.60
2023-06-24T16:59:22.009Z,2.60
2023-06-24T17:04:27.422Z,2.92
2023-06-24T17:09:31.738Z,2.60
2023-06-24T17:14:36.017Z,2.42
2023-06-24T17:19:42.307Z,2.60
2023-06-24T17:29:50.583Z,3.05
2023-06-24T17:34:56.324Z,2.75
2023-06-24T17:40:00.491Z,3.97
2023-06-24T17:45:05.010Z,3.22
2023-06-24T17:50:11.180Z,3.15
2023-06-24T17:55:15.193Z,3.13
2023-06-24T18:00:19.380Z,2.95
2023-06-24T18:05:25.140Z,2.83
2023-06-24T18:10:29.476Z,3.25
2023-06-24T18:15:33.551Z,4.00
2023-06-24T18:20:39.186Z,4.07
2023-06-24T18:25:43.247Z,3.43
2023-06-24T18:30:47.306Z,4.18
2023-06-24T18:35:52.785Z,3.25
2023-06-24T18:40:56.871Z,3.65
2023-06-24T18:46:00.948Z,3.20
2023-06-24T18:51:06.405Z,3.97
2023-06-24T18:56:10.490Z,4.07
2023-06-24T19:01:14.486Z,4.70
2023-06-24T19:06:19.986Z,4.30
2023-06-24T19:11:24.683Z,4.07
2023-06-24T19:16:28.728Z,4.15
2023-06-24T19:21:34.273Z,4.50
2023-06-24T19:26:38.316Z,3.97
2023-06-24T19:31:42.455Z,4.10
2023-06-24T19:36:48.022Z,4.32
2023-06-24T19:41:52.139Z,4.07
2023-06-24T19:46:56.263Z,3.92
2023-06-24T19:52:01.780Z,5.00
2023-06-24T19:57:06.321Z,4.82
2023-06-24T20:02:10.688Z,4.15
2023-06-24T20:07:17.464Z,4.05
2023-06-24T20:12:21.991Z,4.63
2023-06-24T20:17:26.101Z,4.95
2023-06-24T20:22:31.608Z,5.43
2023-06-24T20:27:35.613Z,5.70
2023-06-24T20:32:39.639Z,5.90
2023-06-24T20:37:45.314Z,7.00
2023-06-24T20:42:49.371Z,6.57
2023-06-24T20:47:53.462Z,6.43
2023-06-24T20:52:58.904Z,7.05
2023-06-24T20:58:02.936Z,6.97
2023-06-24T21:03:08.395Z,6.63
2023-06-24T21:08:13.949Z,7.47
2023-06-24T21:13:18.054Z,6.68
2023-06-24T21:18:22.596Z,7.93
2023-06-24T21:23:28.251Z,6.70
2023-06-24T21:28:32.359Z,7.07
2023-06-24T21:33:37.671Z,6.55
2023-06-24T21:38:43.054Z,6.38
2023-06-24T21:43:47.067Z,6.80
2023-06-24T21:48:51.164Z,6.38
2023-06-24T21:53:56.628Z,6.45
2023-06-24T21:59:00.676Z,6.80
2023-06-24T22:04:04.818Z,6.47
2023-06-24T22:09:10.367Z,5.90
2023-06-24T22:14:14.445Z,6.17
2023-06-24T22:19:21.188Z,6.05
2023-06-24T22:24:26.602Z,6.22
2023-06-24T22:29:30.685Z,6.50
2023-06-24T22:34:34.806Z,6.03
2023-06-24T22:39:40.184Z,7.10
2023-06-24T22:44:44.304Z,6.78
2023-06-24T22:49:48.382Z,7.28
2023-06-24T22:54:53.885Z,6.93
2023-06-24T22:59:58.016Z,7.25
2023-06-24T23:05:03.014Z,7.15
2023-06-24T23:10:10.698Z,7.75
2023-06-24T23:15:15.841Z,6.60
2023-06-24T23:20:20.667Z,7.10
2023-06-24T23:25:30.145Z,7.78
2023-06-24T23:30:37.409Z,7.57
2023-06-24T23:35:42.521Z,8.20
2023-06-24T23:40:49.179Z,8.38
2023-06-24T23:50:57.954Z,8.68
2023-06-24T23:56:03.292Z,7.07
